sensor_id;sensor_type;location;lat;lon;timestamp;pressure;altitude;pressure_sealevel;temperature;humidity
74633;BME280;63139;52.018;8.552;2023-05-25T00:01:51;101438.69;;;8.57;89.24
74633;BME280;63139;52.018;8.552;2023-05-25T00:04:20;101449.78;;;8.51;89.90
74633;BME280;63139;52.018;8.552;2023-05-25T00:06:52;101448.47;;;8.45;90.03
74633;BME280;63139;52.018;8.552;2023-05-25T00:09:23;101449.84;;;8.40;90.51
74633;BME280;63139;52.018;8.552;2023-05-25T00:11:51;101444.97;;;8.35;90.36
74633;BME280;63139;52.018;8.552;2023-05-25T00:14:18;101434.78;;;8.31;90.56
74633;BME280;63139;52.018;8.552;2023-05-25T00:16:46;101449.88;;;8.29;90.66
74633;BME280;63139;52.018;8.552;2023-05-25T00:19:14;101443.19;;;8.25;90.85
74633;BME280;63139;52.018;8.552;2023-05-25T00:21:44;101444.41;;;8.21;90.94
74633;BME280;63139;52.018;8.552;2023-05-25T00:24:14;101435.22;;;8.15;91.08
74633;BME280;63139;52.018;8.552;2023-05-25T00:26:43;101434.63;;;8.11;91.11
74633;BME280;63139;52.018;8.552;2023-05-25T00:29:11;101439.59;;;8.05;91.24
74633;BME280;63139;52.018;8.552;2023-05-25T00:31:40;101433.88;;;8.00;91.03
74633;BME280;63139;52.018;8.552;2023-05-25T00:34:08;101440.34;;;7.96;91.14
74633;BME280;63139;52.018;8.552;2023-05-25T00:36:35;101429.59;;;7.88;91.34
74633;BME280;63139;52.018;8.552;2023-05-25T00:39:03;101431.66;;;7.84;91.58
74633;BME280;63139;52.018;8.552;2023-05-25T00:41:32;101432.97;;;7.78;91.52
74633;BME280;63139;52.018;8.552;2023-05-25T00:44:01;101430.84;;;7.72;91.54
74633;BME280;63139;52.018;8.552;2023-05-25T00:46:30;101427.78;;;7.67;91.68
74633;BME280;63139;52.018;8.552;2023-05-25T00:49:00;101430.91;;;7.61;92.08
74633;BME280;63139;52.018;8.552;2023-05-25T00:51:29;101432.94;;;7.58;92.42
74633;BME280;63139;52.018;8.552;2023-05-25T00:53:58;101428.06;;;7.53;92.69
74633;BME280;63139;52.018;8.552;2023-05-25T00:56:29;101432.72;;;7.50;92.98
74633;BME280;63139;52.018;8.552;2023-05-25T00:59:05;101432.16;;;7.46;92.94
74633;BME280;63139;52.018;8.552;2023-05-25T01:01:35;101424.50;;;7.43;93.05
74633;BME280;63139;52.018;8.552;2023-05-25T01:04:07;101424.03;;;7.38;93.37
74633;BME280;63139;52.018;8.552;2023-05-25T01:06:37;101427.75;;;7.35;93.46
74633;BME280;63139;52.018;8.552;2023-05-25T01:09:07;101427.16;;;7.32;93.73
74633;BME280;63139;52.018;8.552;2023-05-25T01:11:39;101424.88;;;7.27;93.86
74633;BME280;63139;52.018;8.552;2023-05-25T01:14:10;101436.53;;;7.25;94.24
74633;BME280;63139;52.018;8.552;2023-05-25T01:16:40;101438.56;;;7.21;94.50
74633;BME280;63139;52.018;8.552;2023-05-25T01:19:07;101439.63;;;7.19;94.52
74633;BME280;63139;52.018;8.552;2023-05-25T01:21:41;101439.91;;;7.16;95.15
74633;BME280;63139;52.018;8.552;2023-05-25T01:24:14;101434.03;;;7.12;94.72
74633;BME280;63139;52.018;8.552;2023-05-25T01:26:49;101437.88;;;7.08;95.54
74633;BME280;63139;52.018;8.552;2023-05-25T01:29:20;101437.41;;;7.03;94.97
74633;BME280;63139;52.018;8.552;2023-05-25T01:31:51;101431.53;;;6.99;94.88
74633;BME280;63139;52.018;8.552;2023-05-25T01:34:20;101429.16;;;6.96;95.04
74633;BME280;63139;52.018;8.552;2023-05-25T01:36:50;101442.56;;;6.93;94.98
74633;BME280;63139;52.018;8.552;2023-05-25T01:39:20;101440.28;;;6.89;94.76
74633;BME280;63139;52.018;8.552;2023-05-25T01:41:48;101442.31;;;6.85;95.25
74633;BME280;63139;52.018;8.552;2023-05-25T01:44:16;101439.06;;;6.82;94.89
74633;BME280;63139;52.018;8.552;2023-05-25T01:46:44;101438.59;;;6.77;94.84
74633;BME280;63139;52.018;8.552;2023-05-25T01:49:22;101437.19;;;6.73;94.80
74633;BME280;63139;52.018;8.552;2023-05-25T01:51:59;101446.25;;;6.69;95.05
74633;BME280;63139;52.018;8.552;2023-05-25T01:54:35;101442.94;;;6.67;95.37
74633;BME280;63139;52.018;8.552;2023-05-25T01:57:06;101441.25;;;6.66;95.19
74633;BME280;63139;52.018;8.552;2023-05-25T01:59:37;101443.88;;;6.66;95.68
74633;BME280;63139;52.018;8.552;2023-05-25T02:02:06;101443.16;;;6.63;95.71
74633;BME280;63139;52.018;8.552;2023-05-25T02:04:34;101449.47;;;6.61;95.65
74633;BME280;63139;52.018;8.552;2023-05-25T02:07:04;101444.47;;;6.58;95.56
74633;BME280;63139;52.018;8.552;2023-05-25T02:09:32;101447.22;;;6.56;95.54
74633;BME280;63139;52.018;8.552;2023-05-25T02:12:00;101440.38;;;6.54;95.73
74633;BME280;63139;52.018;8.552;2023-05-25T02:14:27;101438.84;;;6.51;95.98
74633;BME280;63139;52.018;8.552;2023-05-25T02:16:55;101437.28;;;6.49;95.76
74633;BME280;63139;52.018;8.552;2023-05-25T02:19:27;101444.44;;;6.47;96.04
74633;BME280;63139;52.018;8.552;2023-05-25T02:21:55;101440.28;;;6.44;96.07
74633;BME280;63139;52.018;8.552;2023-05-25T02:24:25;101444.81;;;6.42;96.08
74633;BME280;63139;52.018;8.552;2023-05-25T02:26:53;101443.97;;;6.42;96.17
74633;BME280;63139;52.018;8.552;2023-05-25T02:29:21;101440.59;;;6.40;96.15
74633;BME280;63139;52.018;8.552;2023-05-25T02:31:48;101438.09;;;6.38;96.14
74633;BME280;63139;52.018;8.552;2023-05-25T02:34:16;101446.13;;;6.37;96.04
74633;BME280;63139;52.018;8.552;2023-05-25T02:36:45;101439.19;;;6.36;96.53
74633;BME280;63139;52.018;8.552;2023-05-25T02:39:12;101437.50;;;6.35;96.49
74633;BME280;63139;52.018;8.552;2023-05-25T02:41:42;101440.13;;;6.35;96.88
74633;BME280;63139;52.018;8.552;2023-05-25T02:44:10;101437.59;;;6.33;96.68
74633;BME280;63139;52.018;8.552;2023-05-25T02:46:38;101436.03;;;6.31;96.69
74633;BME280;63139;52.018;8.552;2023-05-25T02:49:06;101439.66;;;6.30;96.65
74633;BME280;63139;52.018;8.552;2023-05-25T02:51:35;101440.59;;;6.29;96.84
74633;BME280;63139;52.018;8.552;2023-05-25T02:54:03;101439.88;;;6.27;97.05
74633;BME280;63139;52.018;8.552;2023-05-25T02:56:31;101439.97;;;6.25;96.57
74633;BME280;63139;52.018;8.552;2023-05-25T02:59:02;101443.69;;;6.22;96.72
74633;BME280;63139;52.018;8.552;2023-05-25T03:01:32;101434.25;;;6.20;96.44
74633;BME280;63139;52.018;8.552;2023-05-25T03:04:00;101445.81;;;6.17;96.74
74633;BME280;63139;52.018;8.552;2023-05-25T03:06:33;101445.09;;;6.15;96.76
74633;BME280;63139;52.018;8.552;2023-05-25T03:09:15;101446.91;;;6.15;97.12
74633;BME280;63139;52.018;8.552;2023-05-25T03:11:45;101450.50;;;6.14;96.81
74633;BME280;63139;52.018;8.552;2023-05-25T03:14:17;101457.53;;;6.13;97.09
74633;BME280;63139;52.018;8.552;2023-05-25T03:16:52;101462.78;;;6.13;96.86
74633;BME280;63139;52.018;8.552;2023-05-25T03:19:21;101465.63;;;6.10;97.16
74633;BME280;63139;52.018;8.552;2023-05-25T03:21:49;101470.91;;;6.10;96.81
74633;BME280;63139;52.018;8.552;2023-05-25T03:24:17;101469.09;;;6.11;96.73
74633;BME280;63139;52.018;8.552;2023-05-25T03:26:45;101469.00;;;6.12;96.63
74633;BME280;63139;52.018;8.552;2023-05-25T03:29:14;101471.53;;;6.14;96.70
74633;BME280;63139;52.018;8.552;2023-05-25T03:31:43;101473.19;;;6.15;96.67
74633;BME280;63139;52.018;8.552;2023-05-25T03:34:11;101471.28;;;6.17;96.50
74633;BME280;63139;52.018;8.552;2023-05-25T03:36:39;101470.94;;;6.21;96.22
74633;BME280;63139;52.018;8.552;2023-05-25T03:39:12;101477.53;;;6.27;96.33
74633;BME280;63139;52.018;8.552;2023-05-25T03:41:40;101477.28;;;6.30;96.74
74633;BME280;63139;52.018;8.552;2023-05-25T03:44:09;101481.47;;;6.33;96.63
74633;BME280;63139;52.018;8.552;2023-05-25T03:46:38;101480.16;;;6.38;96.46
74633;BME280;63139;52.018;8.552;2023-05-25T03:49:07;101482.22;;;6.46;96.50
74633;BME280;63139;52.018;8.552;2023-05-25T03:51:39;101492.28;;;6.52;96.65
74633;BME280;63139;52.018;8.552;2023-05-25T03:54:07;101481.41;;;6.56;96.75
74633;BME280;63139;52.018;8.552;2023-05-25T03:56:35;101479.88;;;6.65;96.65
74633;BME280;63139;52.018;8.552;2023-05-25T03:59:04;101486.22;;;6.74;96.95
74633;BME280;63139;52.018;8.552;2023-05-25T04:01:32;101484.44;;;6.85;97.07
74633;BME280;63139;52.018;8.552;2023-05-25T04:04:03;101491.25;;;6.99;97.66
74633;BME280;63139;52.018;8.552;2023-05-25T04:06:33;101498.66;;;7.16;97.59
74633;BME280;63139;52.018;8.552;2023-05-25T04:09:02;101498.19;;;7.33;97.53
74633;BME280;63139;52.018;8.552;2023-05-25T04:11:32;101499.22;;;7.53;97.73
74633;BME280;63139;52.018;8.552;2023-05-25T04:13:59;101490.41;;;7.75;97.51
74633;BME280;63139;52.018;8.552;2023-05-25T04:16:30;101502.91;;;7.94;97.35
74633;BME280;63139;52.018;8.552;2023-05-25T04:18:58;101507.63;;;8.11;97.13
74633;BME280;63139;52.018;8.552;2023-05-25T04:21:26;101503.59;;;8.28;96.81
74633;BME280;63139;52.018;8.552;2023-05-25T04:23:55;101498.47;;;8.47;96.43
74633;BME280;63139;52.018;8.552;2023-05-25T04:26:24;101496.81;;;8.67;95.61
74633;BME280;63139;52.018;8.552;2023-05-25T04:28:56;101509.13;;;8.87;95.25
74633;BME280;63139;52.018;8.552;2023-05-25T04:31:33;101498.34;;;9.00;94.68
74633;BME280;63139;52.018;8.552;2023-05-25T04:34:13;101506.63;;;9.16;93.92
74633;BME280;63139;52.018;8.552;2023-05-25T04:36:48;101499.59;;;9.35;92.86
74633;BME280;63139;52.018;8.552;2023-05-25T04:39:18;101501.44;;;9.45;91.74
74633;BME280;63139;52.018;8.552;2023-05-25T04:41:50;101508.09;;;9.49;91.34
74633;BME280;63139;52.018;8.552;2023-05-25T04:44:19;101512.28;;;9.51;90.50
74633;BME280;63139;52.018;8.552;2023-05-25T04:46:49;101512.44;;;9.59;90.25
74633;BME280;63139;52.018;8.552;2023-05-25T04:49:24;101515.97;;;9.69;90.11
74633;BME280;63139;52.018;8.552;2023-05-25T04:51:52;101509.44;;;9.83;89.21
74633;BME280;63139;52.018;8.552;2023-05-25T04:54:21;101510.13;;;9.95;88.50
74633;BME280;63139;52.018;8.552;2023-05-25T04:56:49;101511.94;;;10.04;87.60
74633;BME280;63139;52.018;8.552;2023-05-25T04:59:17;101521.13;;;10.09;87.07
74633;BME280;63139;52.018;8.552;2023-05-25T05:01:45;101521.56;;;10.15;86.51
74633;BME280;63139;52.018;8.552;2023-05-25T05:04:15;101532.16;;;10.24;86.42
74633;BME280;63139;52.018;8.552;2023-05-25T05:06:44;101525.19;;;10.33;86.01
74633;BME280;63139;52.018;8.552;2023-05-25T05:09:22;101534.69;;;10.35;85.18
74633;BME280;63139;52.018;8.552;2023-05-25T05:11:51;101536.19;;;10.38;85.00
74633;BME280;63139;52.018;8.552;2023-05-25T05:14:18;101540.25;;;10.42;85.19
74633;BME280;63139;52.018;8.552;2023-05-25T05:16:46;101543.84;;;10.41;84.77
74633;BME280;63139;52.018;8.552;2023-05-25T05:19:14;101542.75;;;10.43;84.39
74633;BME280;63139;52.018;8.552;2023-05-25T05:21:42;101543.03;;;10.50;84.22
74633;BME280;63139;52.018;8.552;2023-05-25T05:24:10;101545.63;;;10.60;84.13
74633;BME280;63139;52.018;8.552;2023-05-25T05:26:40;101544.13;;;10.67;83.65
74633;BME280;63139;52.018;8.552;2023-05-25T05:29:25;101546.47;;;10.70;83.40
74633;BME280;63139;52.018;8.552;2023-05-25T05:31:54;101546.59;;;10.78;82.00
74633;BME280;63139;52.018;8.552;2023-05-25T05:34:22;101548.25;;;10.88;81.76
74633;BME280;63139;52.018;8.552;2023-05-25T05:36:50;101545.41;;;11.00;80.83
74633;BME280;63139;52.018;8.552;2023-05-25T05:39:23;101555.78;;;11.20;80.22
74633;BME280;63139;52.018;8.552;2023-05-25T05:41:53;101557.59;;;11.29;80.03
74633;BME280;63139;52.018;8.552;2023-05-25T05:44:21;101565.50;;;11.39;79.55
74633;BME280;63139;52.018;8.552;2023-05-25T05:46:53;101564.69;;;11.56;79.01
74633;BME280;63139;52.018;8.552;2023-05-25T05:49:26;101566.03;;;11.70;79.21
74633;BME280;63139;52.018;8.552;2023-05-25T05:51:56;101571.16;;;11.81;78.41
74633;BME280;63139;52.018;8.552;2023-05-25T05:54:24;101574.47;;;11.93;77.26
74633;BME280;63139;52.018;8.552;2023-05-25T05:56:55;101583.41;;;11.92;76.93
74633;BME280;63139;52.018;8.552;2023-05-25T05:59:22;101583.16;;;12.03;76.79
74633;BME280;63139;52.018;8.552;2023-05-25T06:01:51;101578.63;;;12.13;75.71
74633;BME280;63139;52.018;8.552;2023-05-25T06:04:19;101587.97;;;12.17;76.08
74633;BME280;63139;52.018;8.552;2023-05-25T06:06:50;101591.69;;;12.24;75.48
74633;BME280;63139;52.018;8.552;2023-05-25T06:09:18;101592.84;;;12.22;75.91
74633;BME280;63139;52.018;8.552;2023-05-25T06:11:46;101599.72;;;12.15;75.44
74633;BME280;63139;52.018;8.552;2023-05-25T06:14:15;101593.72;;;12.30;75.24
74633;BME280;63139;52.018;8.552;2023-05-25T06:16:43;101592.38;;;12.44;74.77
74633;BME280;63139;52.018;8.552;2023-05-25T06:19:11;101597.22;;;12.31;74.78
74633;BME280;63139;52.018;8.552;2023-05-25T06:21:40;101601.25;;;12.35;73.75
74633;BME280;63139;52.018;8.552;2023-05-25T06:24:08;101610.44;;;12.40;73.62
74633;BME280;63139;52.018;8.552;2023-05-25T06:26:36;101606.41;;;12.36;73.48
74633;BME280;63139;52.018;8.552;2023-05-25T06:29:03;101606.25;;;12.38;73.42
74633;BME280;63139;52.018;8.552;2023-05-25T06:31:32;101612.09;;;12.41;73.60
74633;BME280;63139;52.018;8.552;2023-05-25T06:34:01;101617.13;;;12.44;73.09
74633;BME280;63139;52.018;8.552;2023-05-25T06:36:28;101613.31;;;12.47;72.78
74633;BME280;63139;52.018;8.552;2023-05-25T06:38:58;101630.00;;;12.39;72.70
74633;BME280;63139;52.018;8.552;2023-05-25T06:41:26;101620.81;;;12.34;72.88
74633;BME280;63139;52.018;8.552;2023-05-25T06:43:54;101620.06;;;12.41;72.88
74633;BME280;63139;52.018;8.552;2023-05-25T06:46:28;101622.03;;;12.22;72.54
74633;BME280;63139;52.018;8.552;2023-05-25T06:48:59;101625.13;;;12.17;72.31
74633;BME280;63139;52.018;8.552;2023-05-25T06:51:27;101624.16;;;12.18;72.51
74633;BME280;63139;52.018;8.552;2023-05-25T06:53:55;101619.91;;;12.25;72.62
74633;BME280;63139;52.018;8.552;2023-05-25T06:56:23;101632.91;;;12.28;72.64
74633;BME280;63139;52.018;8.552;2023-05-25T06:58:51;101628.25;;;12.30;72.37
74633;BME280;63139;52.018;8.552;2023-05-25T07:01:19;101630.00;;;12.39;72.46
74633;BME280;63139;52.018;8.552;2023-05-25T07:03:47;101629.09;;;12.49;72.17
74633;BME280;63139;52.018;8.552;2023-05-25T07:06:16;101626.88;;;12.62;71.67
74633;BME280;63139;52.018;8.552;2023-05-25T07:08:44;101636.13;;;12.75;71.16
74633;BME280;63139;52.018;8.552;2023-05-25T07:11:11;101635.84;;;12.78;71.00
74633;BME280;63139;52.018;8.552;2023-05-25T07:13:39;101635.06;;;12.86;71.19
74633;BME280;63139;52.018;8.552;2023-05-25T07:16:07;101639.63;;;12.94;70.34
74633;BME280;63139;52.018;8.552;2023-05-25T07:18:37;101642.00;;;13.05;70.53
74633;BME280;63139;52.018;8.552;2023-05-25T07:21:06;101640.19;;;13.05;69.57
74633;BME280;63139;52.018;8.552;2023-05-25T07:23:36;101638.34;;;13.24;69.49
74633;BME280;63139;52.018;8.552;2023-05-25T07:26:05;101637.47;;;13.41;68.88
74633;BME280;63139;52.018;8.552;2023-05-25T07:28:33;101638.47;;;13.40;68.90
74633;BME280;63139;52.018;8.552;2023-05-25T07:31:01;101643.97;;;13.46;68.21
74633;BME280;63139;52.018;8.552;2023-05-25T07:33:29;101637.19;;;13.52;68.33
74633;BME280;63139;52.018;8.552;2023-05-25T07:35:56;101654.06;;;13.69;68.33
74633;BME280;63139;52.018;8.552;2023-05-25T07:38:24;101648.09;;;13.75;67.15
74633;BME280;63139;52.018;8.552;2023-05-25T07:40:53;101649.34;;;13.96;67.18
74633;BME280;63139;52.018;8.552;2023-05-25T07:43:22;101644.41;;;14.18;65.20
74633;BME280;63139;52.018;8.552;2023-05-25T07:45:50;101646.59;;;14.30;66.15
74633;BME280;63139;52.018;8.552;2023-05-25T07:48:17;101653.69;;;14.48;66.31
74633;BME280;63139;52.018;8.552;2023-05-25T07:50:45;101647.22;;;14.66;65.44
74633;BME280;63139;52.018;8.552;2023-05-25T07:53:13;101646.19;;;14.84;65.47
74633;BME280;63139;52.018;8.552;2023-05-25T07:55:41;101653.88;;;14.95;64.85
74633;BME280;63139;52.018;8.552;2023-05-25T07:58:10;101652.19;;;15.10;63.99
74633;BME280;63139;52.018;8.552;2023-05-25T08:00:38;101654.84;;;15.18;63.42
74633;BME280;63139;52.018;8.552;2023-05-25T08:03:06;101655.63;;;15.35;63.73
74633;BME280;63139;52.018;8.552;2023-05-25T08:05:34;101649.59;;;15.49;63.12
74633;BME280;63139;52.018;8.552;2023-05-25T08:08:02;101657.44;;;15.59;62.44
74633;BME280;63139;52.018;8.552;2023-05-25T08:10:30;101664.72;;;15.81;62.03
74633;BME280;63139;52.018;8.552;2023-05-25T08:12:58;101659.31;;;15.97;61.58
74633;BME280;63139;52.018;8.552;2023-05-25T08:15:27;101657.44;;;16.06;61.00
74633;BME280;63139;52.018;8.552;2023-05-25T08:17:55;101655.94;;;16.03;61.51
74633;BME280;63139;52.018;8.552;2023-05-25T08:20:23;101673.06;;;16.17;60.64
74633;BME280;63139;52.018;8.552;2023-05-25T08:22:51;101667.59;;;16.41;59.82
74633;BME280;63139;52.018;8.552;2023-05-25T08:25:19;101667.56;;;16.72;59.14
74633;BME280;63139;52.018;8.552;2023-05-25T08:27:47;101670.34;;;17.01;58.67
74633;BME280;63139;52.018;8.552;2023-05-25T08:30:15;101664.44;;;17.06;58.24
74633;BME280;63139;52.018;8.552;2023-05-25T08:32:44;101669.25;;;17.11;58.10
74633;BME280;63139;52.018;8.552;2023-05-25T08:35:13;101671.56;;;17.14;57.72
74633;BME280;63139;52.018;8.552;2023-05-25T08:37:40;101672.09;;;17.09;57.45
74633;BME280;63139;52.018;8.552;2023-05-25T08:40:13;101664.31;;;16.99;57.34
74633;BME280;63139;52.018;8.552;2023-05-25T08:42:42;101667.41;;;17.11;57.35
74633;BME280;63139;52.018;8.552;2023-05-25T08:45:10;101663.66;;;16.97;57.10
74633;BME280;63139;52.018;8.552;2023-05-25T08:48:00;101671.91;;;16.73;57.18
74633;BME280;63139;52.018;8.552;2023-05-25T08:50:31;101674.09;;;16.69;57.65
74633;BME280;63139;52.018;8.552;2023-05-25T08:53:02;101679.50;;;16.61;56.91
74633;BME280;63139;52.018;8.552;2023-05-25T08:55:32;101672.38;;;16.77;58.00
74633;BME280;63139;52.018;8.552;2023-05-25T08:58:06;101673.25;;;16.69;57.54
74633;BME280;63139;52.018;8.552;2023-05-25T09:00:43;101674.59;;;17.11;56.38
74633;BME280;63139;52.018;8.552;2023-05-25T09:03:16;101682.78;;;17.46;55.56
74633;BME280;63139;52.018;8.552;2023-05-25T09:05:44;101681.47;;;17.42;55.64
74633;BME280;63139;52.018;8.552;2023-05-25T09:08:12;101686.53;;;17.23;55.62
74633;BME280;63139;52.018;8.552;2023-05-25T09:10:41;101681.63;;;17.12;56.13
74633;BME280;63139;52.018;8.552;2023-05-25T09:13:09;101683.66;;;17.10;57.05
74633;BME280;63139;52.018;8.552;2023-05-25T09:15:48;101681.81;;;17.10;55.42
74633;BME280;63139;52.018;8.552;2023-05-25T09:18:17;101677.63;;;17.07;56.26
74633;BME280;63139;52.018;8.552;2023-05-25T09:20:45;101688.47;;;17.29;56.16
74633;BME280;63139;52.018;8.552;2023-05-25T09:23:13;101687.13;;;17.33;56.12
74633;BME280;63139;52.018;8.552;2023-05-25T09:25:42;101692.56;;;17.39;55.27
74633;BME280;63139;52.018;8.552;2023-05-25T09:28:10;101683.84;;;17.23;55.26
74633;BME280;63139;52.018;8.552;2023-05-25T09:30:53;101689.50;;;17.42;54.70
74633;BME280;63139;52.018;8.552;2023-05-25T09:33:22;101682.00;;;17.75;53.94
74633;BME280;63139;52.018;8.552;2023-05-25T09:35:50;101685.66;;;18.04;54.11
74633;BME280;63139;52.018;8.552;2023-05-25T09:38:18;101681.47;;;17.57;53.95
74633;BME280;63139;52.018;8.552;2023-05-25T09:40:46;101692.03;;;17.88;54.50
74633;BME280;63139;52.018;8.552;2023-05-25T09:43:15;101681.50;;;18.01;53.84
74633;BME280;63139;52.018;8.552;2023-05-25T09:45:58;101685.81;;;18.17;53.75
74633;BME280;63139;52.018;8.552;2023-05-25T09:48:27;101693.72;;;17.74;53.53
74633;BME280;63139;52.018;8.552;2023-05-25T09:50:55;101690.47;;;17.64;54.76
74633;BME280;63139;52.018;8.552;2023-05-25T09:53:25;101693.38;;;17.77;54.27
74633;BME280;63139;52.018;8.552;2023-05-25T09:55:53;101698.88;;;18.05;53.54
74633;BME280;63139;52.018;8.552;2023-05-25T09:58:21;101704.38;;;18.33;52.80
74633;BME280;63139;52.018;8.552;2023-05-25T10:00:52;101705.31;;;18.26;53.53
74633;BME280;63139;52.018;8.552;2023-05-25T10:03:20;101704.97;;;18.50;52.37
74633;BME280;63139;52.018;8.552;2023-05-25T10:05:50;101707.00;;;18.12;51.59
74633;BME280;63139;52.018;8.552;2023-05-25T10:08:19;101698.69;;;18.57;51.74
74633;BME280;63139;52.018;8.552;2023-05-25T10:10:49;101696.19;;;18.98;51.40
74633;BME280;63139;52.018;8.552;2023-05-25T10:13:19;101688.56;;;19.23;50.45
74633;BME280;63139;52.018;8.552;2023-05-25T10:15:51;101698.06;;;19.47;50.07
74633;BME280;63139;52.018;8.552;2023-05-25T10:18:23;101698.03;;;18.98;48.61
74633;BME280;63139;52.018;8.552;2023-05-25T10:20:58;101703.47;;;18.83;48.84
74633;BME280;63139;52.018;8.552;2023-05-25T10:23:30;101701.75;;;18.97;50.48
74633;BME280;63139;52.018;8.552;2023-05-25T10:26:03;101700.88;;;19.39;49.61
74633;BME280;63139;52.018;8.552;2023-05-25T10:28:35;101697.47;;;19.52;48.53
74633;BME280;63139;52.018;8.552;2023-05-25T10:31:04;101701.38;;;19.49;49.13
74633;BME280;63139;52.018;8.552;2023-05-25T10:33:32;101697.03;;;19.48;49.46
74633;BME280;63139;52.018;8.552;2023-05-25T10:36:02;101697.22;;;19.47;50.05
74633;BME280;63139;52.018;8.552;2023-05-25T10:38:38;101708.78;;;18.98;50.73
74633;BME280;63139;52.018;8.552;2023-05-25T10:41:08;101698.44;;;18.95;50.38
74633;BME280;63139;52.018;8.552;2023-05-25T10:43:36;101701.25;;;19.08;50.08
74633;BME280;63139;52.018;8.552;2023-05-25T10:46:05;101708.75;;;19.19;49.96
74633;BME280;63139;52.018;8.552;2023-05-25T10:48:36;101709.75;;;19.39;48.66
74633;BME280;63139;52.018;8.552;2023-05-25T10:51:06;101710.91;;;19.30;48.66
74633;BME280;63139;52.018;8.552;2023-05-25T10:53:37;101712.44;;;19.12;48.30
74633;BME280;63139;52.018;8.552;2023-05-25T10:56:06;101714.69;;;18.87;49.20
74633;BME280;63139;52.018;8.552;2023-05-25T10:58:40;101710.03;;;19.23;48.75
74633;BME280;63139;52.018;8.552;2023-05-25T11:01:10;101706.72;;;19.21;48.76
74633;BME280;63139;52.018;8.552;2023-05-25T11:03:53;101713.41;;;19.04;48.25
74633;BME280;63139;52.018;8.552;2023-05-25T11:09:31;101702.91;;;19.09;49.28
74633;BME280;63139;52.018;8.552;2023-05-25T11:12:02;101708.97;;;19.18;48.34
74633;BME280;63139;52.018;8.552;2023-05-25T11:14:32;101706.91;;;19.20;49.58
74633;BME280;63139;52.018;8.552;2023-05-25T11:17:04;101707.38;;;19.02;49.42
74633;BME280;63139;52.018;8.552;2023-05-25T11:19:41;101718.13;;;18.59;50.56
74633;BME280;63139;52.018;8.552;2023-05-25T11:22:14;101718.81;;;18.68;50.42
74633;BME280;63139;52.018;8.552;2023-05-25T11:24:43;101717.53;;;18.64;50.53
74633;BME280;63139;52.018;8.552;2023-05-25T11:27:11;101705.84;;;18.93;50.37
74633;BME280;63139;52.018;8.552;2023-05-25T11:29:39;101702.84;;;19.03;49.81
74633;BME280;63139;52.018;8.552;2023-05-25T11:32:12;101702.84;;;19.03;49.38
74633;BME280;63139;52.018;8.552;2023-05-25T11:34:40;101696.88;;;19.07;49.22
74633;BME280;63139;52.018;8.552;2023-05-25T11:37:15;101696.50;;;19.10;49.20
74633;BME280;63139;52.018;8.552;2023-05-25T11:39:47;101700.59;;;18.85;50.02
74633;BME280;63139;52.018;8.552;2023-05-25T11:42:16;101700.03;;;18.68;50.84
74633;BME280;63139;52.018;8.552;2023-05-25T11:44:45;101700.81;;;18.11;52.04
74633;BME280;63139;52.018;8.552;2023-05-25T11:47:13;101704.53;;;17.96;52.63
74633;BME280;63139;52.018;8.552;2023-05-25T11:49:45;101696.75;;;17.86;52.07
74633;BME280;63139;52.018;8.552;2023-05-25T11:52:18;101698.31;;;18.10;50.92
74633;BME280;63139;52.018;8.552;2023-05-25T11:54:47;101702.38;;;18.20;50.43
74633;BME280;63139;52.018;8.552;2023-05-25T11:57:16;101698.91;;;18.41;50.43
74633;BME280;63139;52.018;8.552;2023-05-25T11:59:46;101688.41;;;18.61;49.82
74633;BME280;63139;52.018;8.552;2023-05-25T12:02:16;101681.09;;;18.97;49.74
74633;BME280;63139;52.018;8.552;2023-05-25T12:04:52;101683.22;;;19.30;48.95
74633;BME280;63139;52.018;8.552;2023-05-25T12:07:22;101676.47;;;19.13;48.02
74633;BME280;63139;52.018;8.552;2023-05-25T12:09:50;101674.31;;;18.74;49.60
74633;BME280;63139;52.018;8.552;2023-05-25T12:12:18;101670.25;;;18.63;50.33
74633;BME280;63139;52.018;8.552;2023-05-25T12:14:47;101674.53;;;18.79;49.69
74633;BME280;63139;52.018;8.552;2023-05-25T12:17:15;101670.78;;;19.22;49.65
74633;BME280;63139;52.018;8.552;2023-05-25T12:19:44;101669.19;;;19.34;48.68
74633;BME280;63139;52.018;8.552;2023-05-25T12:22:12;101663.63;;;19.36;48.20
74633;BME280;63139;52.018;8.552;2023-05-25T12:24:41;101660.13;;;19.63;47.28
74633;BME280;63139;52.018;8.552;2023-05-25T12:27:15;101666.66;;;19.89;46.55
74633;BME280;63139;52.018;8.552;2023-05-25T12:29:47;101658.94;;;19.79;44.81
74633;BME280;63139;52.018;8.552;2023-05-25T12:32:15;101657.75;;;19.88;45.23
74633;BME280;63139;52.018;8.552;2023-05-25T12:34:43;101663.16;;;19.95;46.95
74633;BME280;63139;52.018;8.552;2023-05-25T12:37:18;101659.16;;;19.71;46.26
74633;BME280;63139;52.018;8.552;2023-05-25T12:39:48;101657.34;;;19.85;46.64
74633;BME280;63139;52.018;8.552;2023-05-25T12:42:16;101658.09;;;19.72;47.23
74633;BME280;63139;52.018;8.552;2023-05-25T12:44:44;101659.63;;;19.47;47.53
74633;BME280;63139;52.018;8.552;2023-05-25T12:47:14;101658.50;;;19.69;47.15
74633;BME280;63139;52.018;8.552;2023-05-25T12:49:42;101660.00;;;19.78;46.85
74633;BME280;63139;52.018;8.552;2023-05-25T12:52:30;101660.50;;;19.54;46.05
74633;BME280;63139;52.018;8.552;2023-05-25T12:55:17;101648.16;;;19.66;45.68
74633;BME280;63139;52.018;8.552;2023-05-25T12:57:45;101651.97;;;19.85;46.48
74633;BME280;63139;52.018;8.552;2023-05-25T13:00:19;101649.34;;;19.98;45.78
74633;BME280;63139;52.018;8.552;2023-05-25T13:02:47;101648.28;;;19.92;46.42
74633;BME280;63139;52.018;8.552;2023-05-25T13:05:17;101651.06;;;20.19;46.60
74633;BME280;63139;52.018;8.552;2023-05-25T13:07:46;101648.34;;;20.12;46.12
74633;BME280;63139;52.018;8.552;2023-05-25T13:10:15;101640.31;;;20.25;46.23